createdAt,value
2022-12-08T00:00:48.082Z,0.73
2022-12-08T00:06:08.459Z,1.80
2022-12-08T00:16:15.397Z,1.65
2022-12-08T00:21:17.349Z,1.67
2022-12-08T00:26:19.076Z,3.67
2022-12-08T00:31:20.723Z,4.18
2022-12-08T00:36:22.390Z,2.78
2022-12-08T00:41:44.397Z,2.28
2022-12-08T00:46:46.793Z,5.10
2022-12-08T00:51:48.467Z,2.17
2022-12-08T00:56:50.693Z,5.15
2022-12-08T01:01:52.996Z,1.63
2022-12-08T01:06:54.872Z,3.80
2022-12-08T01:11:56.462Z,2.88
2022-12-08T01:16:58.157Z,1.77
2022-12-08T01:21:59.802Z,3.13
2022-12-08T01:27:01.406Z,2.80
2022-12-08T01:32:03.148Z,1.98
2022-12-08T01:37:04.853Z,7.90
2022-12-08T01:42:06.596Z,3.88
2022-12-08T01:47:08.572Z,1.65
2022-12-08T01:52:29.109Z,2.95
2022-12-08T01:57:50.772Z,2.42
2022-12-08T02:02:54.426Z,5.57
2022-12-08T02:07:57.963Z,8.15
2022-12-08T02:13:01.043Z,3.85
2022-12-08T02:18:27.559Z,1.17
2022-12-08T02:23:41.034Z,1.33
2022-12-08T02:28:53.814Z,1.63
2022-12-08T02:34:16.596Z,5.22
2022-12-08T02:39:30.253Z,4.55
2022-12-08T02:44:39.581Z,4.45
2022-12-08T02:49:41.247Z,4.07
2022-12-08T02:54:47.438Z,4.63
2022-12-08T03:00:13.903Z,1.70
2022-12-08T03:05:31.499Z,1.70
2022-12-08T03:10:39.610Z,2.72
2022-12-08T03:15:44.957Z,4.95
2022-12-08T03:20:48.328Z,5.13
2022-12-08T03:26:08.983Z,4.95
2022-12-08T03:31:13.155Z,3.58
2022-12-08T03:36:15.928Z,5.13
2022-12-08T03:41:20.196Z,2.95
2022-12-08T03:51:25.090Z,5.15
2022-12-08T03:56:29.809Z,1.45
2022-12-08T04:01:31.964Z,1.88
2022-12-08T04:06:33.609Z,3.35
2022-12-08T04:11:35.317Z,6.25
2022-12-08T04:16:37.030Z,5.50
2022-12-08T04:21:38.806Z,4.10
2022-12-08T04:26:40.427Z,4.10
2022-12-08T04:31:42.262Z,1.45
2022-12-08T04:36:43.939Z,0.47
2022-12-08T04:41:45.682Z,1.08
2022-12-08T04:46:47.293Z,2.08
2022-12-08T04:51:49.022Z,0.98
2022-12-08T04:56:50.695Z,1.27
2022-12-08T05:01:52.433Z,3.72
2022-12-08T05:06:54.170Z,0.43
2022-12-08T05:11:55.895Z,3.08
2022-12-08T05:16:57.639Z,3.60
2022-12-08T05:21:59.286Z,1.95
2022-12-08T05:27:01.067Z,3.17
2022-12-08T05:32:02.866Z,5.05
2022-12-08T05:37:04.750Z,4.90
2022-12-08T05:42:06.467Z,6.10
2022-12-08T05:47:08.138Z,4.78
2022-12-08T05:52:09.761Z,4.10
2022-12-08T05:57:11.639Z,4.40
2022-12-08T06:02:13.548Z,4.20
2022-12-08T06:07:16.283Z,2.03
2022-12-08T06:12:18.095Z,4.57
2022-12-08T06:17:19.834Z,3.25
2022-12-08T06:22:21.834Z,5.35
2022-12-08T06:27:23.674Z,5.65
2022-12-08T06:32:27.588Z,3.60
2022-12-08T06:37:29.602Z,4.65
2022-12-08T06:42:49.598Z,2.58
2022-12-08T06:47:51.351Z,3.47
2022-12-08T06:53:00.994Z,13.40
2022-12-08T06:58:06.806Z,2.85
2022-12-08T07:03:09.886Z,4.40
2022-12-08T07:08:12.074Z,2.55
2022-12-08T07:13:14.788Z,6.32
2022-12-08T07:18:16.531Z,2.28
2022-12-08T07:23:18.384Z,2.88
2022-12-08T07:28:20.054Z,3.95
2022-12-08T07:33:21.916Z,1.80
2022-12-08T07:38:24.840Z,6.97
2022-12-08T07:43:26.679Z,4.03
2022-12-08T07:48:28.389Z,3.28
2022-12-08T07:53:30.609Z,2.45
2022-12-08T07:58:32.379Z,2.28
2022-12-08T08:03:35.216Z,0.77
2022-12-08T08:08:38.498Z,2.72
2022-12-08T08:13:40.432Z,1.50
2022-12-08T08:18:42.375Z,8.02
2022-12-08T08:23:44.333Z,15.80
2022-12-08T08:28:46.309Z,19.10
2022-12-08T08:33:49.629Z,31.48
2022-12-08T08:38:51.306Z,6.57
2022-12-08T08:43:55.008Z,5.10
2022-12-08T08:48:56.755Z,6.82
2022-12-08T08:53:58.775Z,7.43
2022-12-08T08:59:00.549Z,7.50
2022-12-08T09:04:02.280Z,6.90
2022-12-08T09:09:04.345Z,9.38
2022-12-08T09:14:06.663Z,3.30
2022-12-08T09:19:09.944Z,4.80
2022-12-08T09:24:15.745Z,5.70
2022-12-08T09:29:17.814Z,3.55
2022-12-08T09:34:19.943Z,3.80
2022-12-08T09:39:21.750Z,3.13
2022-12-08T09:44:23.738Z,4.80
2022-12-08T09:49:40.268Z,2.35
2022-12-08T09:54:42.052Z,1.70
2022-12-08T09:59:48.783Z,2.35
2022-12-08T10:04:51.413Z,2.15
2022-12-08T10:10:02.575Z,4.13
2022-12-08T10:15:30.800Z,2.22
2022-12-08T10:20:42.162Z,1.75
2022-12-08T10:25:49.766Z,3.08
2022-12-08T10:30:52.270Z,1.63
2022-12-08T10:35:58.483Z,2.35
2022-12-08T10:41:11.307Z,7.13
2022-12-08T10:46:28.542Z,2.58
2022-12-08T10:51:37.649Z,5.03
2022-12-08T10:56:39.573Z,1.75
2022-12-08T11:01:42.876Z,2.47
2022-12-08T11:06:45.762Z,3.53
2022-12-08T11:11:51.471Z,2.67
2022-12-08T11:17:09.511Z,3.25
2022-12-08T11:22:31.044Z,3.65
2022-12-08T11:27:34.203Z,1.90
2022-12-08T11:32:36.340Z,3.90
2022-12-08T11:37:41.811Z,4.68
2022-12-08T11:43:14.664Z,3.47
2022-12-08T11:48:20.325Z,2.13
2022-12-08T11:53:48.960Z,1.52
2022-12-08T11:58:58.584Z,4.68
2022-12-08T12:04:22.309Z,2.20
2022-12-08T12:10:21.220Z,4.85
2022-12-08T12:15:51.364Z,3.58
2022-12-08T12:21:16.986Z,5.80
2022-12-08T12:26:24.972Z,6.40
2022-12-08T12:31:31.476Z,6.50
2022-12-08T12:36:46.545Z,1.63
2022-12-08T12:41:55.174Z,2.40
2022-12-08T12:47:01.446Z,2.50
2022-12-08T12:52:04.412Z,2.35
2022-12-08T12:57:09.277Z,5.57
2022-12-08T13:02:23.290Z,2.58
2022-12-08T13:07:32.391Z,2.33
2022-12-08T13:12:34.107Z,5.43
2022-12-08T13:17:38.459Z,24.17
2022-12-08T13:22:50.147Z,2.63
2022-12-08T13:27:53.866Z,2.13
2022-12-08T13:38:26.440Z,5.00
2022-12-08T13:44:50.434Z,2.85
2022-12-08T14:00:21.203Z,3.67
2022-12-08T14:05:47.733Z,3.25
2022-12-08T14:10:57.472Z,2.08
2022-12-08T14:15:59.332Z,2.95
2022-12-08T14:21:20.753Z,4.30
2022-12-08T14:26:23.171Z,2.92
2022-12-08T14:31:25.950Z,3.47
2022-12-08T14:36:29.113Z,2.10
2022-12-08T14:41:32.589Z,4.35
2022-12-08T14:46:34.352Z,5.45
2022-12-08T14:51:36.925Z,4.80
2022-12-08T14:56:51.766Z,3.20
2022-12-08T15:02:09.261Z,2.95
2022-12-08T15:07:22.655Z,1.80
2022-12-08T15:12:33.315Z,4.15
2022-12-08T15:17:43.216Z,6.40
2022-12-08T15:22:44.906Z,3.30
2022-12-08T15:27:50.619Z,2.80
2022-12-08T15:32:54.218Z,5.68
2022-12-08T15:37:55.958Z,4.55
2022-12-08T15:42:57.634Z,3.92
2022-12-08T15:47:59.472Z,3.78
2022-12-08T15:53:01.622Z,2.88
2022-12-08T15:58:51.632Z,6.10
2022-12-08T16:09:06.133Z,4.80
2022-12-08T16:15:01.963Z,21.80
2022-12-08T16:19:35.846Z,8.45
2022-12-08T16:24:37.636Z,4.88
2022-12-08T16:29:39.463Z,5.68
2022-12-08T16:34:41.919Z,5.20
2022-12-08T16:39:46.126Z,6.18
2022-12-08T16:44:48.863Z,8.63
2022-12-08T16:49:50.767Z,7.82
2022-12-08T16:54:52.573Z,6.20
2022-12-08T16:59:54.431Z,6.40
2022-12-08T17:04:56.326Z,7.10
2022-12-08T17:09:58.841Z,7.00
2022-12-08T17:15:03.122Z,8.50
2022-12-08T17:20:12.698Z,8.48
2022-12-08T17:25:15.389Z,7.73
2022-12-08T17:30:19.035Z,8.38
2022-12-08T17:35:21.689Z,8.25
2022-12-08T17:40:27.997Z,7.05
2022-12-08T17:45:30.273Z,7.30
2022-12-08T17:50:32.186Z,7.05
2022-12-08T17:55:34.619Z,9.98
2022-12-08T18:00:36.841Z,8.65
2022-12-08T18:05:38.630Z,9.20
2022-12-08T18:10:40.410Z,8.85
2022-12-08T18:15:42.049Z,8.38
2022-12-08T18:20:43.804Z,7.53
2022-12-08T18:25:45.853Z,7.28
2022-12-08T18:30:47.724Z,9.23
2022-12-08T18:35:49.541Z,9.98
2022-12-08T18:40:51.215Z,14.88
2022-12-08T18:46:01.629Z,14.45
2022-12-08T18:51:04.338Z,13.45
2022-12-08T18:56:07.088Z,11.68
2022-12-08T19:01:13.879Z,12.32
2022-12-08T19:06:41.081Z,11.93
2022-12-08T19:11:43.567Z,12.18
2022-12-08T19:16:45.278Z,13.13
2022-12-08T19:21:47.000Z,13.30
2022-12-08T19:26:48.863Z,14.77
2022-12-08T19:31:50.774Z,16.58
2022-12-08T19:36:52.558Z,25.60
2022-12-08T19:42:12.880Z,20.52
2022-12-08T19:47:15.172Z,22.02
2022-12-08T19:52:17.407Z,24.45
2022-12-08T19:57:20.493Z,25.33
2022-12-08T20:02:22.527Z,20.05
2022-12-08T20:07:24.338Z,23.02
2022-12-08T20:12:36.691Z,28.42
2022-12-08T20:17:38.739Z,18.80
2022-12-08T20:22:40.546Z,20.70
2022-12-08T20:27:42.316Z,24.23
2022-12-08T20:32:44.744Z,21.98
2022-12-08T20:37:46.542Z,19.73
2022-12-08T20:42:52.283Z,18.45
2022-12-08T20:47:55.451Z,24.55
2022-12-08T20:52:57.168Z,23.25
2022-12-08T20:57:59.126Z,23.10
2022-12-08T21:03:01.232Z,31.70
2022-12-08T21:08:03.126Z,26.23
2022-12-08T21:13:05.699Z,25.88
2022-12-08T21:18:07.643Z,24.10
2022-12-08T21:23:10.094Z,25.02
2022-12-08T21:28:12.703Z,39.13
2022-12-08T21:33:14.906Z,49.33
2022-12-08T21:38:20.096Z,28.60
2022-12-08T21:43:21.978Z,31.77
2022-12-08T21:48:24.390Z,39.70
2022-12-08T21:53:26.582Z,32.53
2022-12-08T21:58:31.986Z,27.92
2022-12-08T22:03:34.787Z,40.72
2022-12-08T22:08:37.360Z,28.33
2022-12-08T22:13:41.662Z,42.10
2022-12-08T22:18:46.091Z,29.10
2022-12-08T22:23:51.219Z,36.20
2022-12-08T22:28:54.316Z,37.70
2022-12-08T22:33:56.260Z,28.05
2022-12-08T22:38:58.045Z,62.63
2022-12-08T22:43:59.772Z,37.15
2022-12-08T22:49:01.699Z,33.60
2022-12-08T22:54:04.418Z,46.05
2022-12-08T22:59:06.661Z,36.25
2022-12-08T23:04:17.370Z,42.20
2022-12-08T23:09:20.117Z,34.97
2022-12-08T23:14:22.250Z,37.13
2022-12-08T23:19:23.975Z,33.75
2022-12-08T23:24:25.593Z,35.08
2022-12-08T23:29:27.476Z,47.20
2022-12-08T23:34:29.192Z,42.25
2022-12-08T23:39:32.494Z,37.78
2022-12-08T23:44:34.961Z,32.03
2022-12-08T23:49:37.155Z,34.35
2022-12-08T23:54:39.612Z,34.45
2022-12-08T23:59:41.799Z,33.92
